地図

経路データ

SID SEASON NUMBER BASIN SUBBASIN NAME ISO_TIME NATURE LAT LON WMO_WIND WMO_PRES WMO_AGENCY TRACK_TYPE DIST2LAND LANDFALL IFLAG USA_AGENCY USA_ATCF_ID USA_LAT USA_LON USA_RECORD USA_STATUS USA_WIND USA_PRES USA_SSHS USA_R34_NE USA_R34_SE USA_R34_SW USA_R34_NW USA_R50_NE USA_R50_SE USA_R50_SW USA_R50_NW USA_R64_NE USA_R64_SE USA_R64_SW USA_R64_NW USA_POCI USA_ROCI USA_RMW USA_EYE TOKYO_LAT TOKYO_LON TOKYO_GRADE TOKYO_WIND TOKYO_PRES TOKYO_R50_DIR TOKYO_R50_LONG TOKYO_R50_SHORT TOKYO_R30_DIR TOKYO_R30_LONG TOKYO_R30_SHORT TOKYO_LAND CMA_LAT CMA_LON CMA_CAT CMA_WIND CMA_PRES HKO_LAT HKO_LON HKO_CAT HKO_WIND HKO_PRES NEWDELHI_LAT NEWDELHI_LON NEWDELHI_GRADE NEWDELHI_WIND NEWDELHI_PRES NEWDELHI_CI NEWDELHI_DP NEWDELHI_POCI REUNION_LAT REUNION_LON REUNION_TYPE REUNION_WIND REUNION_PRES REUNION_TNUM REUNION_CI REUNION_RMW REUNION_R34_NE REUNION_R34_SE REUNION_R34_SW REUNION_R34_NW REUNION_R50_NE REUNION_R50_SE REUNION_R50_SW REUNION_R50_NW REUNION_R64_NE REUNION_R64_SE REUNION_R64_SW REUNION_R64_NW BOM_LAT BOM_LON BOM_TYPE BOM_WIND BOM_PRES BOM_TNUM BOM_CI BOM_RMW BOM_R34_NE BOM_R34_SE BOM_R34_SW BOM_R34_NW BOM_R50_NE BOM_R50_SE BOM_R50_SW BOM_R50_NW BOM_R64_NE BOM_R64_SE BOM_R64_SW BOM_R64_NW BOM_ROCI BOM_POCI BOM_EYE BOM_POS_METHOD BOM_PRES_METHOD NADI_LAT NADI_LON NADI_CAT NADI_WIND NADI_PRES WELLINGTON_LAT WELLINGTON_LON WELLINGTON_WIND WELLINGTON_PRES DS824_LAT DS824_LON DS824_STAGE DS824_WIND DS824_PRES TD9636_LAT TD9636_LON TD9636_STAGE TD9636_WIND TD9636_PRES TD9635_LAT TD9635_LON TD9635_WIND TD9635_PRES TD9635_ROCI NEUMANN_LAT NEUMANN_LON NEUMANN_CLASS NEUMANN_WIND NEUMANN_PRES MLC_LAT MLC_LON MLC_CLASS MLC_WIND MLC_PRES USA_GUST BOM_GUST BOM_GUST_PER REUNION_GUST REUNION_GUST_PER USA_SEAHGT USA_SEARAD_NE USA_SEARAD_SE USA_SEARAD_SW USA_SEARAD_NW STORM_SPEED STORM_DIR
1946165N28274 1946 31 NA GM NOT_NAMED 1946-06-13 12:00:00 TS 27.5000 -86.5000 25 hurdat_atl main 267 257 O_____________ hurdat_atl AL011946 27.5000 -86.5000 TD 25 -1 4 321
1946165N28274 1946 31 NA GM NOT_NAMED 1946-06-13 15:00:00 TS 27.6500 -86.6399 main 252 252 P_____________ AL011946 27.6500 -86.6399 TD 27 -1 4 319
1946165N28274 1946 31 NA GM NOT_NAMED 1946-06-13 18:00:00 TS 27.8000 -86.8000 30 hurdat_atl main 252 236 O_____________ hurdat_atl AL011946 27.8000 -86.8000 TD 30 -1 4 314
1946165N28274 1946 31 NA GM NOT_NAMED 1946-06-13 21:00:00 TS 27.9500 -86.9925 main 230 208 P_____________ AL011946 27.9500 -86.9925 TD 30 -1 5 310
1946165N28274 1946 31 NA GM NOT_NAMED 1946-06-14 00:00:00 TS 28.1000 -87.2000 30 hurdat_atl main 208 185 O_____________ hurdat_atl AL011946 28.1000 -87.2000 TD 30 -1 5 311
1946165N28274 1946 31 NA GM NOT_NAMED 1946-06-14 03:00:00 TS 28.2575 -87.4000 main 179 157 P_____________ AL011946 28.2575 -87.4000 TD 32 -1 5 311
1946165N28274 1946 31 NA GM NOT_NAMED 1946-06-14 06:00:00 TS 28.4000 -87.6000 35 hurdat_atl main 157 134 O_____________ hurdat_atl AL011946 28.4000 -87.6000 TS 35 0 4 308
1946165N28274 1946 31 NA GM NOT_NAMED 1946-06-14 09:00:00 TS 28.5148 -87.7776 main 134 112 P_____________ AL011946 28.5148 -87.7776 TS 35 0 4 300
1946165N28274 1946 31 NA GM NOT_NAMED 1946-06-14 12:00:00 TS 28.6000 -88.0000 35 hurdat_atl main 112 81 O_____________ hurdat_atl AL011946 28.6000 -88.0000 TS 35 0 5 288
1946165N28274 1946 31 NA GM NOT_NAMED 1946-06-14 15:00:00 TS 28.6650 -88.3200 main 81 51 P_____________ AL011946 28.6650 -88.3200 TS 35 0 6 279
1946165N28274 1946 31 NA GM NOT_NAMED 1946-06-14 18:00:00 TS 28.7000 -88.7000 35 hurdat_atl main 51 33 O_____________ hurdat_atl AL011946 28.7000 -88.7000 TS 35 0 7 273
1946165N28274 1946 31 NA GM NOT_NAMED 1946-06-14 21:00:00 TS 28.6999 -89.0927 main 33 33 P_____________ AL011946 28.6999 -89.0927 TS 35 0 7 270
1946165N28274 1946 31 NA GM NOT_NAMED 1946-06-15 00:00:00 TS 28.7000 -89.5000 35 hurdat_atl main 45 45 O_____________ hurdat_atl AL011946 28.7000 -89.5000 TS 35 0 7 274
1946165N28274 1946 31 NA GM NOT_NAMED 1946-06-15 03:00:00 TS 28.7499 -89.9074 main 48 33 P_____________ AL011946 28.7499 -89.9074 TS 35 0 7 278
1946165N28274 1946 31 NA GM NOT_NAMED 1946-06-15 06:00:00 TS 28.8000 -90.3000 35 hurdat_atl main 34 33 O_____________ hurdat_atl AL011946 28.8000 -90.3000 TS 35 0 7 274
1946165N28274 1946 31 NA GM NOT_NAMED 1946-06-15 09:00:00 TS 28.7998 -90.6577 main 34 33 P_____________ AL011946 28.7998 -90.6577 TS 35 0 6 270
1946165N28274 1946 31 NA GM NOT_NAMED 1946-06-15 12:00:00 TS 28.8000 -91.0000 35 hurdat_atl main 34 34 O_____________ hurdat_atl AL011946 28.8000 -91.0000 TS 35 0 6 273
1946165N28274 1946 31 NA GM NOT_NAMED 1946-06-15 15:00:00 TS 28.8349 -91.3500 main 53 51 P_____________ AL011946 28.8349 -91.3500 TS 35 0 6 279
1946165N28274 1946 31 NA GM NOT_NAMED 1946-06-15 18:00:00 TS 28.9000 -91.7000 35 hurdat_atl main 67 62 O_____________ hurdat_atl AL011946 28.9000 -91.7000 TS 35 0 6 284
1946165N28274 1946 31 NA GM NOT_NAMED 1946-06-15 21:00:00 TS 28.9849 -92.0501 main 59 44 P_____________ AL011946 28.9849 -92.0501 TS 32 -1 6 288
1946165N28274 1946 31 NA GM NOT_NAMED 1946-06-16 00:00:00 TS 29.1000 -92.4000 30 hurdat_atl main 45 38 O_____________ hurdat_atl AL011946 29.1000 -92.4000 TD 30 -1 7 293
1946165N28274 1946 31 NA GM NOT_NAMED 1946-06-16 03:00:00 TS 29.2424 -92.7500 main 48 34 P_____________ AL011946 29.2424 -92.7500 TD 30 -1 7 296
1946165N28274 1946 31 NA GM NOT_NAMED 1946-06-16 06:00:00 TS 29.4000 -93.1000 30 hurdat_atl main 38 33 O_____________ hurdat_atl AL011946 29.4000 -93.1000 TD 30 -1 7 297
1946165N28274 1946 31 NA GM NOT_NAMED 1946-06-16 09:00:00 TS 29.5422 -93.4278 main 33 0 P_____________ AL011946 29.5422 -93.4278 TD 27 -1 7 296
1946165N28274 1946 31 NA GM NOT_NAMED 1946-06-16 12:00:00 TS 29.7000 -93.8000 25 hurdat_atl main 0 0 O_____________ hurdat_atl AL011946 29.7000 -93.8000 TD 25 -1 8 295
1946165N28274 1946 31 NA NA NOT_NAMED 1946-06-16 15:00:00 TS 29.8906 -94.2694 main 0 0 P_____________ AL011946 29.8906 -94.2694 TD 22 -1 10 295
1946165N28274 1946 31 NA NA NOT_NAMED 1946-06-16 18:00:00 TS 30.1000 -94.8000 20 hurdat_atl main 0 O_____________ hurdat_atl AL011946 30.1000 -94.8000 TD 20 -1 10 294

IBTrACS Databaseについて

本データベースは、米国NOAAが公開する1842年以降の世界の熱帯低気圧のベストトラックデータアーカイブInternational Best Track Archive for Climate Stewardship (IBTrACS)を、ウェブで閲覧しやすい形式に変換したものです。

最終更新日:2021-12-01